Johnstown, Pennsylvania
Current Conditions -  °F | °C
As of 4:06 AM on Saturday 01 Nov 2014 (Local Time) from KJST Reporting Station
Light Rain Light Rain  
Wind Chill:   Ceiling: 1500
Heat Index:   Visibility: 8mi
Dew Point:   Wind: 6mph
Humidity: 93%   Direction: 30°NNE
Pressure: 29.83"   Gusts: NA
Location:  40.33°N, 78.92°W
Report Text: KJST 010806Z AUTO 03005KT 8SM -RA FEW006 BKN015 OVC090 02/01 A2983 RMK AO2 RAB0755 P0000 T00220011
Loading
Personal Weather Stations






























Interactive Weather Map
Tropical Storm Tracking
New forecast layout! Learn more

10-Day Weather Forecast

Advertisements
Track Severe Weather on mobile